Time;durP1;ratioP1;P1;durP2;ratioP2;P2;SDS_P1;SDS_P2;PMS_P1;PMS_P2;Temp;Humidity;BMP_temperature;BMP_pressure;BME280_temperature;BME280_humidity;BME280_pressure;Samples;Min_cycle;Max_cycle;Signal;HPM_P1;HPM_P2
2022/08/08 00:03:13;;;;;;;6.63;4.30;;;;;;;15.87;65.27;102339.59;5155372;27;20041;-74
2022/08/08 00:06:28;;;;;;;5.85;4.10;;;;;;;15.82;65.83;102331.66;5155493;27;20195;-74
2022/08/08 00:09:20;;;;;;;10.48;4.97;;;;;;;15.78;65.84;102338.00;5156075;27;20039;-75
2022/08/08 00:12:01;;;;;;;6.80;4.40;;;;;;;15.70;65.63;102332.03;5155346;27;20039;-75
2022/08/08 00:15:10;;;;;;;8.27;4.82;;;;;;;15.69;65.99;102336.47;5155620;27;20046;-75
2022/08/08 00:18:12;;;;;;;8.23;4.38;;;;;;;15.68;66.29;102336.53;5154953;27;20147;-75
2022/08/08 00:20:51;;;;;;;9.30;4.90;;;;;;;15.63;66.22;102336.66;5155143;27;20050;-75
2022/08/08 00:23:41;;;;;;;9.88;4.55;;;;;;;15.63;66.06;102343.75;5155096;27;20047;-75
2022/08/08 00:26:47;;;;;;;6.78;4.50;;;;;;;15.58;66.39;102343.00;5154555;27;20110;-75
2022/08/08 00:29:32;;;;;;;7.25;4.75;;;;;;;15.55;66.93;102335.13;5155240;27;20046;-75
2022/08/08 00:32:18;;;;;;;8.68;4.95;;;;;;;15.53;67.18;102345.78;5154720;27;20071;-75
2022/08/08 00:35:33;;;;;;;8.45;5.07;;;;;;;15.48;67.07;102348.59;5155406;27;20088;-75
2022/08/08 00:38:17;;;;;;;6.35;4.75;;;;;;;15.47;67.38;102351.25;5155035;27;20139;-74
2022/08/08 00:41:47;;;;;;;7.07;4.95;;;;;;;15.45;67.82;102351.31;5154535;27;20039;-75
2022/08/08 00:45:01;;;;;;;9.90;5.50;;;;;;;15.41;67.95;102354.97;5155073;27;20039;-75
2022/08/08 00:48:13;;;;;;;7.22;5.22;;;;;;;15.33;67.63;102347.22;5154921;27;20120;-75
2022/08/08 00:51:38;;;;;;;11.23;5.60;;;;;;;15.30;68.02;102351.72;5135835;27;20046;-75
2022/08/08 00:54:38;;;;;;;12.43;6.10;;;;;;;15.28;68.03;102340.28;5154857;27;20123;-75
2022/08/08 00:57:47;;;;;;;7.93;5.68;;;;;;;15.23;67.93;102343.03;5136312;27;20047;-75
2022/08/08 01:00:29;;;;;;;8.48;5.70;;;;;;;15.17;68.16;102348.50;5136485;27;20046;-75
2022/08/08 01:03:58;;;;;;;11.30;5.93;;;;;;;15.17;68.74;102346.72;5135807;27;20047;-75
2022/08/08 01:07:08;;;;;;;9.38;6.05;;;;;;;15.17;69.73;102335.22;5135587;27;20043;-75
2022/08/08 01:10:26;;;;;;;10.38;5.50;;;;;;;15.13;70.08;102337.09;5109930;27;20055;-75
2022/08/08 01:13:37;;;;;;;8.95;5.75;;;;;;;15.12;70.38;102334.47;5135433;27;20043;-75
2022/08/08 01:16:47;;;;;;;10.20;5.63;;;;;;;15.09;70.21;102331.91;5135918;27;20116;-75
2022/08/08 01:20:01;;;;;;;12.02;6.18;;;;;;;15.07;70.50;102334.59;5136013;27;20504;-74
2022/08/08 01:23:37;;;;;;;10.82;6.22;;;;;;;15.05;70.84;102333.75;5135768;27;20050;-75
2022/08/08 01:27:15;;;;;;;11.63;5.90;;;;;;;14.99;71.01;102333.94;5050856;28;20057;-75
2022/08/08 01:30:46;;;;;;;7.10;5.88;;;;;;;14.96;71.24;102331.34;5136236;27;20047;-74
2022/08/08 01:33:57;;;;;;;10.82;6.20;;;;;;;14.92;71.75;102325.25;5135403;27;20039;-75
2022/08/08 01:36:53;;;;;;;11.38;6.32;;;;;;;14.88;71.91;102329.75;5135575;27;20549;-74
2022/08/08 01:40:11;;;;;;;10.75;6.13;;;;;;;14.86;72.07;102328.91;5156170;27;20054;-74
2022/08/08 01:43:10;;;;;;;8.23;5.70;;;;;;;14.82;72.25;102332.53;5139555;27;20100;-75
2022/08/08 01:46:22;;;;;;;11.35;6.32;;;;;;;14.82;72.55;102332.53;5139039;27;20058;-75
2022/08/08 01:49:17;;;;;;;9.52;6.18;;;;;;;14.81;72.81;102335.25;5138852;27;20488;-75
2022/08/08 01:52:36;;;;;;;8.98;6.50;;;;;;;14.75;72.81;102326.50;5138920;27;20035;-75
2022/08/08 01:56:10;;;;;;;9.65;6.38;;;;;;;14.72;72.51;102331.03;5156476;27;20122;-75
2022/08/08 01:59:45;;;;;;;12.88;6.53;;;;;;;14.66;72.43;102325.84;5139407;27;20039;-75
2022/08/08 02:03:03;;;;;;;10.00;6.60;;;;;;;14.62;72.84;102326.81;5157403;27;20043;-75
2022/08/08 02:06:12;;;;;;;9.98;6.75;;;;;;;14.57;73.28;102324.25;5138520;27;20039;-75
2022/08/08 02:09:17;;;;;;;9.90;6.60;;;;;;;14.57;73.93;102333.13;5138782;27;20031;-75
2022/08/08 02:12:22;;;;;;;13.55;6.95;;;;;;;14.54;74.10;102324.34;5139027;27;20122;-74
2022/08/08 02:15:15;;;;;;;10.55;7.10;;;;;;;14.48;74.11;102328.03;5138475;27;20124;-75
2022/08/08 02:18:01;;;;;;;11.55;7.82;;;;;;;14.45;74.27;102328.94;5156486;27;20134;-74
2022/08/08 02:20:42;;;;;;;9.43;7.20;;;;;;;14.43;74.57;102328.13;5138675;27;20873;-74
2022/08/08 02:23:40;;;;;;;12.68;7.47;;;;;;;14.41;74.96;102337.91;5138511;27;20043;-74
2022/08/08 02:26:20;;;;;;;14.00;7.72;;;;;;;14.39;74.80;102328.25;5138926;27;20092;-75
2022/08/08 02:29:19;;;;;;;9.70;7.03;;;;;;;14.37;75.21;102330.03;5138070;27;20040;-75
2022/08/08 02:32:31;;;;;;;11.10;7.32;;;;;;;14.31;74.81;102325.75;5138399;27;20051;-75
2022/08/08 02:35:01;;;;;;;12.68;7.63;;;;;;;14.28;75.09;102332.00;5138516;27;20043;-75
2022/08/08 02:38:24;;;;;;;14.80;7.85;;;;;;;14.30;75.31;102326.66;5138261;27;20047;-75
2022/08/08 02:42:05;;;;;;;9.73;7.28;;;;;;;14.24;75.21;102324.16;5138238;27;20506;-75
2022/08/08 02:44:49;;;;;;;13.90;8.18;;;;;;;14.23;75.74;102336.53;5138432;27;20074;-74
2022/08/08 02:48:02;;;;;;;15.07;8.13;;;;;;;14.22;75.96;102341.88;5138217;27;20067;-75
2022/08/08 02:50:55;;;;;;;11.70;8.10;;;;;;;14.19;76.18;102333.97;5137811;27;20401;-75
2022/08/08 02:54:13;;;;;;;13.48;8.05;;;;;;;14.17;76.53;102334.00;5138196;27;20042;-74
2022/08/08 02:57:23;;;;;;;10.60;7.85;;;;;;;14.13;76.83;102327.91;5156685;27;20054;-75
2022/08/08 03:00:19;;;;;;;11.77;7.78;;;;;;;14.10;76.94;102335.91;5137222;27;20054;-75
2022/08/08 03:03:45;;;;;;;9.90;7.82;;;;;;;14.06;76.76;102334.22;5138033;27;20966;-75
2022/08/08 03:06:53;;;;;;;12.68;7.20;;;;;;;14.03;76.72;102334.31;5137767;27;20100;-75
2022/08/08 03:09:42;;;;;;;14.02;7.40;;;;;;;13.99;76.59;102332.63;5138071;27;20118;-75
2022/08/08 03:12:55;;;;;;;13.88;7.45;;;;;;;13.95;76.49;102326.50;5137849;27;20038;-75
2022/08/08 03:16:03;;;;;;;11.57;7.40;;;;;;;13.93;76.73;102316.84;5136986;27;20046;-76
2022/08/08 03:18:48;;;;;;;10.02;8.18;;;;;;;13.92;76.83;102337.16;5137704;27;20049;-75
2022/08/08 03:21:18;;;;;;;11.90;7.65;;;;;;;13.90;77.28;102335.47;5122146;27;20043;-75
2022/08/08 03:24:06;;;;;;;12.05;8.25;;;;;;;13.87;76.70;102343.47;5137123;27;20468;-76
2022/08/08 03:26:43;;;;;;;12.43;7.78;;;;;;;13.81;76.77;102341.81;5137820;27;20039;-75
2022/08/08 03:29:26;;;;;;;11.52;7.65;;;;;;;13.79;77.44;102333.91;5156300;27;20039;-75
2022/08/08 03:35:07;;;;;;;13.60;8.18;;;;;;;13.77;78.22;102338.34;5137188;27;20090;-75
2022/08/08 03:37:35;;;;;;;13.00;8.52;;;;;;;13.78;78.28;102345.41;5155958;27;20515;-75
2022/08/08 03:40:26;;;;;;;11.15;8.38;;;;;;;13.76;78.14;102341.03;5137110;27;20066;-75
2022/08/08 03:43:00;;;;;;;;;;;;;;;13.77;78.28;102353.41;5156883;27;20133;-75
2022/08/08 03:45:48;;;;;;;11.88;7.97;;;;;;;13.75;78.53;102349.91;5154552;27;19924;-76
2022/08/08 03:48:36;;;;;;;12.73;8.02;;;;;;;13.73;78.32;102352.59;5137171;27;20051;-75
2022/08/08 03:51:28;;;;;;;13.13;8.52;;;;;;;13.72;78.07;102349.94;5154402;27;20043;-75
2022/08/08 03:54:16;;;;;;;12.52;8.15;;;;;;;13.72;78.19;102360.53;5136802;27;20043;-75
2022/08/08 03:57:11;;;;;;;14.85;7.95;;;;;;;13.70;78.56;102355.28;5136390;27;20055;-75
2022/08/08 03:59:58;;;;;;;11.30;7.60;;;;;;;13.69;78.29;102356.19;5135587;27;20045;-75
2022/08/08 04:03:03;;;;;;;12.32;9.05;;;;;;;13.67;78.56;102358.00;5136587;27;20071;-76
2022/08/08 04:05:37;;;;;;;14.55;8.68;;;;;;;13.64;78.33;102360.69;5136369;27;20049;-75
2022/08/08 04:08:23;;;;;;;12.10;8.35;;;;;;;13.64;78.47;102368.63;5136604;27;20043;-75
2022/08/08 04:11:04;;;;;;;13.75;9.73;;;;;;;13.61;78.26;102366.06;5136953;27;20048;-75
2022/08/08 04:13:38;;;;;;;11.95;8.80;;;;;;;13.63;78.68;102370.44;5136980;27;20046;-75
2022/08/08 04:16:26;;;;;;;13.57;9.23;;;;;;;13.67;79.30;102365.94;5136330;27;20138;-75
2022/08/08 04:19:09;;;;;;;13.10;9.15;;;;;;;13.69;79.72;102373.84;5136563;27;20094;-75
2022/08/08 04:21:55;;;;;;;15.38;9.25;;;;;;;13.68;79.66;102373.00;5136683;27;20047;-75
2022/08/08 04:24:25;;;;;;;15.13;10.23;;;;;;;13.72;79.74;102374.69;5136904;27;20039;-75
2022/08/08 04:26:57;;;;;;;14.73;9.15;;;;;;;13.73;79.60;102376.44;5153554;27;20051;-75
2022/08/08 04:29:27;;;;;;;13.63;9.15;;;;;;;13.74;79.53;102386.13;5136874;27;20069;-75
2022/08/08 04:32:07;;;;;;;16.48;9.77;;;;;;;13.78;79.54;102385.16;5136698;27;20055;-75
2022/08/08 04:34:36;;;;;;;16.17;10.15;;;;;;;13.85;79.33;102379.72;5154871;27;20120;-75
2022/08/08 04:37:25;;;;;;;20.35;9.90;;;;;;;13.90;79.45;102386.69;5136551;27;20569;-75
2022/08/08 04:40:03;;;;;;;14.27;9.90;;;;;;;13.91;79.28;102383.13;5136442;27;20084;-75
2022/08/08 04:42:41;;;;;;;14.32;9.70;;;;;;;13.98;79.30;102387.44;5136588;27;20040;-75
2022/08/08 04:45:25;;;;;;;15.05;9.75;;;;;;;14.02;79.08;102384.69;5136384;27;20092;-75
2022/08/08 04:47:57;;;;;;;17.80;10.52;;;;;;;14.04;79.22;102385.56;5153412;27;20458;-75
2022/08/08 04:50:27;;;;;;;13.90;9.45;;;;;;;14.04;79.11;102389.06;5153815;27;20070;-75
2022/08/08 04:53:04;;;;;;;14.68;10.50;;;;;;;14.04;79.18;102386.41;5135965;27;20763;-75
2022/08/08 04:55:52;;;;;;;14.90;10.45;;;;;;;14.10;79.20;102390.72;5136119;27;20047;-75
2022/08/08 04:58:26;;;;;;;15.43;9.50;;;;;;;14.14;78.96;102392.41;5136471;27;20866;-75
2022/08/08 05:00:53;;;;;;;13.98;9.73;;;;;;;14.20;78.88;102399.38;5136438;27;20039;-74
2022/08/08 05:03:22;;;;;;;15.43;9.55;;;;;;;14.27;78.95;102400.97;5136446;27;20313;-75
2022/08/08 05:06:10;;;;;;;15.18;9.52;;;;;;;14.35;78.79;102403.47;5136215;27;20075;-75
2022/08/08 05:08:42;;;;;;;12.35;10.00;;;;;;;14.42;78.72;102402.44;5135499;27;20841;-74
2022/08/08 05:11:13;;;;;;;15.18;9.75;;;;;;;14.48;78.50;102407.63;5136195;27;20043;-75
2022/08/08 05:13:50;;;;;;;12.48;9.63;;;;;;;14.57;78.47;102410.06;5136252;27;20038;-74
2022/08/08 05:16:29;;;;;;;14.95;9.43;;;;;;;14.66;77.76;102406.31;5134933;27;20054;-76
2022/08/08 05:19:18;;;;;;;11.82;9.25;;;;;;;14.69;78.32;102403.63;5135853;27;20195;-76
2022/08/08 05:22:07;;;;;;;17.33;9.93;;;;;;;14.73;78.34;102407.09;5136056;27;20043;-77
2022/08/08 05:24:40;;;;;;;15.65;9.88;;;;;;;14.81;78.10;102405.13;5136087;27;20058;-76
2022/08/08 05:27:16;;;;;;;15.63;10.60;;;;;;;14.88;77.91;102409.41;5135925;27;20048;-75
2022/08/08 05:29:44;;;;;;;17.35;10.60;;;;;;;14.98;77.85;102410.03;5152927;27;20039;-76
2022/08/08 05:32:18;;;;;;;12.68;10.02;;;;;;;15.32;77.04;102414.53;5135578;27;20051;-75
2022/08/08 05:34:58;;;;;;;14.50;9.63;;;;;;;15.97;75.21;102409.31;5135908;27;20035;-75
2022/08/08 05:37:38;;;;;;;10.18;8.95;;;;;;;17.78;70.13;102402.72;5135419;27;20062;-75
2022/08/08 05:40:28;;;;;;;11.80;8.57;;;;;;;20.08;61.79;102397.94;5135540;27;20064;-76
2022/08/08 05:43:09;;;;;;;10.55;7.95;;;;;;;21.47;57.19;102392.13;5135755;27;20043;-76
2022/08/08 05:46:04;;;;;;;10.73;7.07;;;;;;;22.53;53.39;102404.38;5135800;27;20043;-75
2022/08/08 05:48:37;;;;;;;9.40;7.22;;;;;;;23.34;51.60;102408.69;5135729;27;20062;-75
2022/08/08 05:51:10;;;;;;;9.73;6.68;;;;;;;24.01;49.72;102405.50;5135578;27;20093;-76
2022/08/08 05:53:45;;;;;;;9.35;6.00;;;;;;;24.39;47.93;102403.19;5135067;27;20051;-75
2022/08/08 05:56:39;;;;;;;9.23;6.43;;;;;;;24.81;46.52;102415.69;5135549;27;20157;-77
2022/08/08 05:59:24;;;;;;;7.75;5.90;;;;;;;24.63;46.12;102406.97;5135568;27;20051;-75
2022/08/08 06:05:21;;;;;;;9.77;6.53;;;;;;;20.22;56.33;102425.88;5135827;27;20097;-76
2022/08/08 06:08:06;;;;;;;10.45;7.30;;;;;;;19.01;60.33;102418.56;5151976;27;20054;-75
2022/08/08 06:10:57;;;;;;;10.30;7.10;;;;;;;18.24;63.30;102426.88;5135348;27;20907;-75
2022/08/08 06:13:27;;;;;;;11.60;7.57;;;;;;;17.81;65.10;102416.81;5135319;27;20511;-75
2022/08/08 06:16:04;;;;;;;10.20;7.82;;;;;;;17.54;66.29;102422.22;5135056;27;20051;-75
2022/08/08 06:18:54;;;;;;;12.75;7.70;;;;;;;17.32;67.49;102426.53;5153414;27;20514;-75
2022/08/08 06:21:25;;;;;;;10.55;7.05;;;;;;;17.26;68.06;102440.91;5135169;27;20054;-76
2022/08/08 06:24:01;;;;;;;11.40;7.93;;;;;;;17.23;68.15;102435.72;5136050;27;20075;-76
2022/08/08 06:26:41;;;;;;;12.20;7.63;;;;;;;17.22;68.68;102441.97;5138944;27;20779;-76
2022/08/08 06:30:00;;;;;;;10.32;6.88;;;;;;;17.26;68.66;102440.91;5138267;27;20058;-77
2022/08/08 06:32:51;;;;;;;11.15;6.90;;;;;;;17.26;68.61;102451.56;5117929;27;20059;-76
2022/08/08 06:35:23;;;;;;;10.45;7.53;;;;;;;17.33;68.54;102450.47;5138661;27;20047;-75
2022/08/08 06:38:17;;;;;;;11.30;6.75;;;;;;;17.33;68.64;102453.16;5156648;27;20849;-75
2022/08/08 06:40:52;;;;;;;8.18;6.20;;;;;;;17.44;68.65;102451.91;5138226;27;20043;-76
2022/08/08 06:43:30;;;;;;;8.98;6.10;;;;;;;17.53;68.12;102454.25;5138336;27;20058;-75
2022/08/08 06:46:13;;;;;;;8.48;5.35;;;;;;;17.60;67.35;102446.94;5137998;27;20039;-76
2022/08/08 06:48:44;;;;;;;12.20;5.70;;;;;;;17.67;67.33;102448.44;5138288;27;20042;-76
2022/08/08 06:51:13;;;;;;;8.45;5.90;;;;;;;17.75;67.12;102450.84;5138371;27;20035;-75
2022/08/08 06:53:42;;;;;;;9.02;5.15;;;;;;;17.80;67.23;102462.22;5138510;27;20795;-76
2022/08/08 06:56:30;;;;;;;8.20;4.40;;;;;;;17.96;66.06;102454.53;5138279;27;20043;-76
2022/08/08 06:58:58;;;;;;;7.35;4.75;;;;;;;18.03;65.66;102458.75;5155032;27;20138;-76
2022/08/08 07:01:32;;;;;;;5.95;4.05;;;;;;;18.14;65.49;102463.72;5137931;27;20126;-76
2022/08/08 07:04:48;;;;;;;8.13;3.57;;;;;;;18.27;64.16;102459.66;5138013;27;20061;-76
2022/08/08 07:07:48;;;;;;;6.35;3.47;;;;;;;18.31;64.32;102461.28;5137759;27;20077;-75
2022/08/08 07:10:22;;;;;;;5.70;3.53;;;;;;;18.42;63.86;102454.69;5138040;27;20039;-76
2022/08/08 07:13:05;;;;;;;4.95;2.85;;;;;;;18.57;62.71;102447.88;5156231;27;20035;-76
2022/08/08 07:16:02;;;;;;;5.82;2.67;;;;;;;18.61;63.35;102455.72;5138085;27;20558;-76
2022/08/08 07:19:30;;;;;;;5.95;3.22;;;;;;;18.79;62.16;102458.59;5138135;27;20110;-75
2022/08/08 07:22:06;;;;;;;5.43;2.63;;;;;;;18.86;62.19;102462.78;5095643;27;20119;-75
2022/08/08 07:25:00;;;;;;;7.22;2.88;;;;;;;18.92;61.92;102464.34;5137737;27;20039;-75
2022/08/08 07:27:36;;;;;;;5.88;2.70;;;;;;;19.00;62.08;102470.28;5137782;27;20115;-75
2022/08/08 07:30:24;;;;;;;5.53;2.65;;;;;;;19.07;61.17;102461.06;5137531;27;20043;-75
2022/08/08 07:32:59;;;;;;;5.07;2.50;;;;;;;19.13;60.64;102464.44;5137261;27;20051;-75
2022/08/08 07:35:29;;;;;;;5.13;2.42;;;;;;;19.16;60.74;102464.28;5137513;27;20535;-76
2022/08/08 07:38:03;;;;;;;4.97;2.20;;;;;;;19.21;60.08;102465.84;5137749;27;20042;-76
2022/08/08 07:40:57;;;;;;;5.63;2.40;;;;;;;19.33;60.44;102463.59;5137081;27;20817;-76
2022/08/08 07:43:33;;;;;;;5.22;2.17;;;;;;;19.52;59.38;102467.22;5137507;27;20078;-76
2022/08/08 07:46:05;;;;;;;3.67;1.88;;;;;;;19.63;58.72;102471.25;5137162;27;20962;-76
2022/08/08 07:48:57;;;;;;;4.25;2.08;;;;;;;19.65;57.82;102477.41;5154502;27;20069;-76
2022/08/08 07:51:26;;;;;;;3.95;1.80;;;;;;;19.64;58.40;102468.50;5137214;27;20871;-76
2022/08/08 07:54:32;;;;;;;6.40;1.80;;;;;;;19.83;57.79;102475.75;5136523;27;20035;-75
2022/08/08 07:57:17;;;;;;;6.38;2.08;;;;;;;19.97;57.79;102478.72;5137287;27;20532;-76
2022/08/08 08:00:13;;;;;;;4.07;2.08;;;;;;;20.12;57.21;102487.00;5154332;27;20496;-76
2022/08/08 08:03:10;;;;;;;4.07;1.80;;;;;;;20.20;56.79;102483.97;5137302;27;20050;-76
2022/08/08 08:05:54;;;;;;;3.67;1.77;;;;;;;20.31;55.31;102481.66;5136839;27;20050;-76
2022/08/08 08:08:53;;;;;;;3.60;1.50;;;;;;;20.30;56.02;102485.28;5137234;27;20571;-75
2022/08/08 08:11:29;;;;;;;6.80;1.90;;;;;;;20.45;54.16;102489.09;5137047;27;20050;-76
2022/08/08 08:14:52;;;;;;;2.13;1.42;;;;;;;20.43;53.47;102486.47;5136683;27;20412;-77
2022/08/08 08:17:24;;;;;;;4.45;1.55;;;;;;;20.45;53.88;102489.09;5135977;27;20118;-76
2022/08/08 08:20:03;;;;;;;3.10;1.30;;;;;;;20.59;52.64;102502.69;5136635;27;20503;-75
2022/08/08 08:22:31;;;;;;;6.38;1.70;;;;;;;20.60;53.33;102495.56;5136642;27;20118;-75
2022/08/08 08:25:03;;;;;;;3.63;1.65;;;;;;;20.62;53.68;102499.88;5136056;27;20531;-76
2022/08/08 08:27:35;;;;;;;4.22;1.75;;;;;;;20.72;53.23;102492.28;5136963;27;20815;-76
2022/08/08 08:30:04;;;;;;;3.70;1.63;;;;;;;20.74;53.08;102492.25;5136867;27;20047;-75
2022/08/08 08:32:34;;;;;;;3.22;1.33;;;;;;;20.85;52.84;102495.28;5136696;27;20039;-76
2022/08/08 08:35:16;;;;;;;2.45;1.38;;;;;;;20.94;53.38;102499.31;5136361;27;20047;-75
2022/08/08 08:37:49;;;;;;;4.22;1.83;;;;;;;21.09;52.01;102505.75;5136686;27;20050;-77
2022/08/08 08:40:37;;;;;;;3.13;1.50;;;;;;;21.18;51.51;102501.75;5136044;27;20118;-76
2022/08/08 08:43:07;;;;;;;3.60;1.40;;;;;;;21.23;51.75;102502.38;5136371;27;20086;-76
2022/08/08 08:45:47;;;;;;;4.18;1.23;;;;;;;21.29;51.19;102499.44;5136206;27;20039;-76
2022/08/08 08:48:19;;;;;;;3.30;1.50;;;;;;;21.33;50.71;102500.13;5135895;27;20046;-76
2022/08/08 08:50:52;;;;;;;3.67;1.35;;;;;;;21.39;50.41;102495.34;5136261;27;20043;-76
2022/08/08 08:53:21;;;;;;;4.43;1.60;;;;;;;21.50;50.24;102515.38;5136838;27;20060;-75
2022/08/08 08:56:17;;;;;;;3.22;1.30;;;;;;;21.50;48.43;102505.50;5153801;27;20522;-76
2022/08/08 08:58:55;;;;;;;5.68;1.15;;;;;;;21.49;48.46;102506.47;5136450;27;20066;-75
2022/08/08 09:01:36;;;;;;;3.65;1.27;;;;;;;21.45;49.40;102509.38;5135598;27;20043;-76
2022/08/08 09:04:33;;;;;;;4.80;1.60;;;;;;;21.52;48.71;102502.75;5154826;27;20130;-76
2022/08/08 09:07:22;;;;;;;2.10;1.10;;;;;;;21.59;47.92;102508.69;5135751;27;20490;-76
2022/08/08 09:10:11;;;;;;;2.55;1.02;;;;;;;21.60;47.98;102510.44;5135301;27;20069;-76
2022/08/08 09:12:46;;;;;;;2.22;1.20;;;;;;;21.64;49.27;102502.16;5153348;27;20047;-76
2022/08/08 09:15:18;;;;;;;3.53;1.23;;;;;;;21.78;47.64;102506.81;5136264;27;20353;-76
2022/08/08 09:18:06;;;;;;;2.60;1.20;;;;;;;21.78;48.66;102501.44;5136177;27;20393;-76
2022/08/08 09:20:38;;;;;;;2.30;1.30;;;;;;;21.97;47.59;102504.03;5136072;27;20039;-77
2022/08/08 09:23:31;;;;;;;3.75;1.10;;;;;;;22.15;46.29;102499.53;5154287;27;20128;-76
2022/08/08 09:26:55;;;;;;;2.88;1.20;;;;;;;22.25;46.33;102496.34;5136066;27;20488;-76
2022/08/08 09:29:24;;;;;;;1.75;1.00;;;;;;;22.31;45.09;102491.50;5136100;27;20043;-76
2022/08/08 09:32:09;;;;;;;2.75;0.90;;;;;;;22.41;44.84;102491.91;5135881;27;20101;-76
2022/08/08 09:34:50;;;;;;;3.33;0.90;;;;;;;22.53;44.10;102497.56;5135577;27;20093;-76
2022/08/08 09:37:28;;;;;;;5.22;0.98;;;;;;;22.59;42.96;102497.19;5135659;27;20039;-76
2022/08/08 09:40:23;;;;;;;2.25;0.85;;;;;;;22.52;43.94;102498.50;5135657;27;20031;-77
2022/08/08 09:43:25;;;;;;;1.70;0.80;;;;;;;22.74;43.48;102501.75;5154442;27;20040;-75
2022/08/08 09:46:15;;;;;;;4.38;0.80;;;;;;;22.85;42.96;102493.06;5153310;27;20112;-76
2022/08/08 09:48:59;;;;;;;2.42;0.90;;;;;;;22.90;43.34;102493.69;5154029;27;20868;-75
2022/08/08 09:51:52;;;;;;;2.50;0.90;;;;;;;22.94;44.08;102486.31;5154375;27;20043;-76
2022/08/08 09:54:44;;;;;;;3.22;1.00;;;;;;;23.15;43.61;102486.88;5154038;27;20507;-75
2022/08/08 09:57:33;;;;;;;1.88;0.80;;;;;;;23.22;42.97;102496.38;5153820;27;20031;-76
2022/08/08 10:00:15;;;;;;;3.45;0.88;;;;;;;23.26;43.28;102492.53;5156279;27;20126;-76
2022/08/08 10:03:04;;;;;;;1.90;0.77;;;;;;;23.30;44.00;102482.47;5157576;27;20043;-75
2022/08/08 10:05:36;;;;;;;2.10;0.77;;;;;;;23.40;43.80;102489.03;5157718;27;20089;-75
2022/08/08 10:08:05;;;;;;;3.70;0.77;;;;;;;23.48;44.12;102485.88;5157650;27;20031;-76
2022/08/08 10:10:42;;;;;;;3.50;0.90;;;;;;;23.63;44.13;102486.78;5157597;27;20046;-76
2022/08/08 10:13:23;;;;;;;4.13;0.70;;;;;;;23.80;44.21;102487.63;5157189;27;20130;-76
2022/08/08 10:16:02;;;;;;;4.40;0.68;;;;;;;23.64;43.97;102488.53;5157137;27;20061;-75
2022/08/08 10:18:35;;;;;;;1.13;0.57;;;;;;;23.88;43.87;102486.19;5157527;27;20092;-76
2022/08/08 10:21:08;;;;;;;3.72;0.73;;;;;;;23.89;43.10;102490.59;5157298;27;20043;-76
2022/08/08 10:24:02;;;;;;;3.70;0.98;;;;;;;24.07;42.01;102484.22;5156677;27;20131;-75
2022/08/08 10:26:52;;;;;;;3.97;0.80;;;;;;;23.91;42.60;102495.88;5157414;27;20436;-75
2022/08/08 10:29:39;;;;;;;2.65;0.90;;;;;;;23.90;42.79;102488.78;5157841;27;20039;-76
2022/08/08 10:32:31;;;;;;;9.07;1.20;;;;;;;23.95;43.11;102489.41;5156788;27;20046;-76
2022/08/08 10:35:14;;;;;;;2.53;0.70;;;;;;;24.17;42.61;102488.91;5156735;27;20393;-75
2022/08/08 10:38:06;;;;;;;2.72;0.60;;;;;;;24.41;40.75;102490.19;5141621;27;20050;-75
2022/08/08 10:40:37;;;;;;;1.38;0.70;;;;;;;24.42;40.21;102482.00;5157027;27;20039;-75
2022/08/08 10:43:06;;;;;;;1.95;0.55;;;;;;;24.39;40.23;102487.56;5156530;27;20042;-75
2022/08/08 10:45:44;;;;;;;4.72;0.90;;;;;;;24.32;41.07;102484.41;5156623;27;20043;-76
2022/08/08 10:48:35;;;;;;;1.75;0.75;;;;;;;24.47;40.85;102473.63;5156845;27;20050;-75
2022/08/08 10:51:28;;;;;;;1.35;0.80;;;;;;;24.66;41.53;102478.72;5156658;27;20163;-75
2022/08/08 10:54:00;;;;;;;2.97;0.80;;;;;;;24.73;40.76;102473.78;5157186;27;20097;-75
2022/08/08 10:56:33;;;;;;;1.45;0.60;;;;;;;24.66;40.52;102474.16;5156504;27;20130;-75
2022/08/08 10:59:08;;;;;;;1.80;0.80;;;;;;;24.68;39.95;102478.59;5156515;27;20114;-75
2022/08/08 11:01:37;;;;;;;;;;;;;;;24.62;40.72;102475.31;5157075;27;20123;-75
2022/08/08 11:04:08;;;;;;;2.83;0.88;;;;;;;24.80;40.50;102470.59;5156913;27;20428;-75
2022/08/08 11:06:37;;;;;;;2.05;0.80;;;;;;;25.06;40.63;102468.03;5156753;27;20070;-75
2022/08/08 11:09:13;;;;;;;2.22;0.60;;;;;;;25.02;40.94;102473.72;5138987;27;20046;-76
2022/08/08 11:11:52;;;;;;;1.33;0.57;;;;;;;24.77;40.41;102470.81;5155822;27;20438;-75
2022/08/08 11:14:59;;;;;;;2.75;0.70;;;;;;;24.40;40.44;102474.97;5156434;27;20386;-75
2022/08/08 11:17:31;;;;;;;2.60;0.77;;;;;;;24.16;40.94;102470.16;5156255;27;20412;-76
2022/08/08 11:20:21;;;;;;;1.48;0.70;;;;;;;24.48;41.22;102467.28;5155552;27;20050;-76
2022/08/08 11:22:58;;;;;;;3.13;0.82;;;;;;;24.62;40.59;102459.13;5156066;27;20043;-76
2022/08/08 11:25:30;;;;;;;1.55;0.50;;;;;;;24.60;39.35;102460.22;5155983;27;20569;-75
2022/08/08 11:28:24;;;;;;;1.52;0.80;;;;;;;24.54;39.90;102466.00;5156302;27;20047;-75
2022/08/08 11:30:56;;;;;;;0.93;0.70;;;;;;;24.84;39.84;102462.31;5155514;27;20074;-75
2022/08/08 11:33:29;;;;;;;2.95;0.70;;;;;;;25.25;38.45;102459.53;5156167;27;20035;-75
2022/08/08 11:36:17;;;;;;;1.50;0.60;;;;;;;25.14;38.28;102469.34;5156022;27;20046;-75
2022/08/08 11:38:46;;;;;;;1.00;0.57;;;;;;;25.24;38.69;102459.66;5156190;27;20504;-75
2022/08/08 11:41:28;;;;;;;1.05;0.50;;;;;;;25.64;37.91;102451.56;5137591;27;20043;-75
2022/08/08 11:43:59;;;;;;;1.70;0.60;;;;;;;25.92;36.67;102448.75;5155581;27;20112;-75
2022/08/08 11:46:29;;;;;;;1.65;0.77;;;;;;;25.69;37.69;102443.97;5156104;27;20031;-75
2022/08/08 11:49:10;;;;;;;1.85;0.60;;;;;;;25.97;36.52;102444.75;5155996;27;20050;-75
2022/08/08 11:51:44;;;;;;;0.88;0.50;;;;;;;26.15;35.99;102439.03;5156075;27;20587;-75
2022/08/08 11:54:30;;;;;;;1.73;0.50;;;;;;;26.08;36.21;102443.13;5155885;27;20043;-75
2022/08/08 11:57:32;;;;;;;1.85;0.50;;;;;;;26.18;36.49;102439.69;5155775;27;20122;-75
2022/08/08 12:00:06;;;;;;;6.75;1.00;;;;;;;26.13;36.79;102435.59;5109958;27;20079;-75
2022/08/08 12:02:53;;;;;;;2.38;0.90;;;;;;;26.29;36.17;102438.03;5156176;27;20047;-75
2022/08/08 12:05:37;;;;;;;2.88;0.60;;;;;;;26.23;37.27;102427.69;5156105;27;20553;-76
2022/08/08 12:08:04;;;;;;;;;;;;;;;26.47;36.23;102422.31;5155497;27;20511;-75
2022/08/08 12:10:32;;;;;;;4.55;0.73;;;;;;;26.66;35.88;102425.41;5155379;27;19924;-76
2022/08/08 12:13:07;;;;;;;2.30;0.70;;;;;;;26.91;36.02;102433.53;5155009;27;20127;-75
2022/08/08 12:15:39;;;;;;;4.00;0.90;;;;;;;27.17;35.10;102433.41;5155433;27;20520;-76
2022/08/08 12:18:25;;;;;;;3.35;0.70;;;;;;;26.89;35.45;102427.38;5155203;27;20531;-76
2022/08/08 12:20:56;;;;;;;1.48;0.77;;;;;;;26.64;34.46;102438.16;5154645;27;20482;-75
2022/08/08 12:23:35;;;;;;;2.42;0.63;;;;;;;26.16;34.97;102428.13;5154805;27;20471;-76
2022/08/08 12:26:15;;;;;;;2.28;0.60;;;;;;;26.23;34.61;102425.84;5155342;27;20399;-75
2022/08/08 12:28:57;;;;;;;2.20;0.55;;;;;;;26.05;34.88;102428.88;5155519;27;20041;-75
2022/08/08 12:31:34;;;;;;;2.80;0.60;;;;;;;25.70;35.64;102440.31;5154705;27;20039;-75
2022/08/08 12:34:35;;;;;;;1.33;0.68;;;;;;;25.93;36.67;102428.88;5155224;27;20492;-75
2022/08/08 12:37:06;;;;;;;1.67;0.57;;;;;;;26.34;36.13;102422.38;5154682;27;20126;-76
2022/08/08 12:39:37;;;;;;;2.33;0.73;;;;;;;26.73;34.89;102423.09;5155367;27;20512;-75
2022/08/08 12:42:24;;;;;;;3.13;0.65;;;;;;;26.93;34.71;102420.78;5154854;27;20039;-75
2022/08/08 12:45:06;;;;;;;3.28;0.85;;;;;;;27.12;33.61;102418.38;5154877;27;20039;-75
2022/08/08 12:48:17;;;;;;;1.17;0.60;;;;;;;27.04;33.72;102417.22;5155063;27;20039;-76
2022/08/08 12:51:05;;;;;;;4.70;0.70;;;;;;;27.09;34.59;102420.47;5154588;27;20043;-76
2022/08/08 12:54:00;;;;;;;3.65;0.80;;;;;;;27.38;33.74;102422.78;5154986;27;20092;-76
2022/08/08 12:56:38;;;;;;;2.53;0.95;;;;;;;27.27;33.57;102419.06;5154861;27;20035;-77
2022/08/08 12:59:24;;;;;;;1.60;0.80;;;;;;;27.05;33.43;102427.09;5154616;27;20066;-75
2022/08/08 13:02:05;;;;;;;1.00;0.52;;;;;;;26.88;34.11;102433.75;5154371;27;20055;-76